createdAt,value
2018-07-16T00:00:42.681Z,991.52
2018-07-16T00:01:42.860Z,991.50
2018-07-16T00:02:43.036Z,991.51
2018-07-16T00:03:43.217Z,991.56
2018-07-16T00:04:43.394Z,991.53
2018-07-16T00:05:43.569Z,991.51
2018-07-16T00:06:43.743Z,991.50
2018-07-16T00:07:43.923Z,991.52
2018-07-16T00:08:44.102Z,991.52
2018-07-16T00:09:44.272Z,991.54
2018-07-16T00:10:44.455Z,991.52
2018-07-16T00:11:44.632Z,991.55
2018-07-16T00:12:44.808Z,991.52
2018-07-16T00:13:44.983Z,991.54
2018-07-16T00:14:45.241Z,991.55
2018-07-16T00:15:45.336Z,991.53
2018-07-16T00:16:45.515Z,991.50
2018-07-16T00:17:45.696Z,991.51
2018-07-16T00:18:45.884Z,991.52
2018-07-16T00:19:46.056Z,991.56
2018-07-16T00:20:46.233Z,991.56
2018-07-16T00:21:46.405Z,991.55
2018-07-16T00:22:46.581Z,991.54
2018-07-16T00:23:46.757Z,991.51
2018-07-16T00:24:46.936Z,991.52
2018-07-16T00:25:47.112Z,991.53
2018-07-16T00:26:47.285Z,991.51
2018-07-16T00:27:47.470Z,991.55
2018-07-16T00:28:47.642Z,991.52
2018-07-16T00:29:47.820Z,991.52
2018-07-16T00:30:47.994Z,991.48
2018-07-16T00:31:48.174Z,991.51
2018-07-16T00:32:48.357Z,991.48
2018-07-16T00:33:48.528Z,991.47
2018-07-16T00:34:48.708Z,991.49
2018-07-16T00:35:48.881Z,991.46
2018-07-16T00:36:49.060Z,991.47
2018-07-16T00:37:49.238Z,991.46
2018-07-16T00:38:49.415Z,991.49
2018-07-16T00:39:49.591Z,991.46
2018-07-16T00:40:49.771Z,991.46
2018-07-16T00:41:49.944Z,991.48
2018-07-16T00:42:50.119Z,991.44
2018-07-16T00:43:50.295Z,991.43
2018-07-16T00:44:50.470Z,991.42
2018-07-16T00:45:50.645Z,991.44
2018-07-16T00:46:50.822Z,991.45
2018-07-16T00:47:50.997Z,991.45
2018-07-16T00:48:51.171Z,991.40
2018-07-16T00:49:51.350Z,991.40
2018-07-16T00:50:51.529Z,991.41
2018-07-16T00:51:51.707Z,991.39
2018-07-16T00:52:51.883Z,991.41
2018-07-16T00:53:52.062Z,991.39
2018-07-16T00:54:52.245Z,991.43
2018-07-16T00:55:52.421Z,991.42
2018-07-16T00:56:52.601Z,991.41
2018-07-16T00:57:52.776Z,991.43
2018-07-16T00:58:52.978Z,991.42
2018-07-16T00:59:53.126Z,991.42
2018-07-16T01:00:53.303Z,991.40
2018-07-16T01:01:53.485Z,991.41
2018-07-16T01:02:53.661Z,991.43
2018-07-16T01:03:53.836Z,991.44
2018-07-16T01:04:54.007Z,991.44
2018-07-16T01:05:54.193Z,991.46
2018-07-16T01:06:54.368Z,991.45
2018-07-16T01:07:54.545Z,991.45
2018-07-16T01:08:54.713Z,991.47
2018-07-16T01:09:54.893Z,991.45
2018-07-16T01:10:55.075Z,991.44
2018-07-16T01:11:55.254Z,991.42
2018-07-16T01:12:55.428Z,991.44
2018-07-16T01:13:55.605Z,991.43
2018-07-16T01:14:55.783Z,991.42
2018-07-16T01:15:55.962Z,991.45
2018-07-16T01:16:56.139Z,991.44
2018-07-16T01:17:56.318Z,991.43
2018-07-16T01:18:56.493Z,991.45
2018-07-16T01:19:56.670Z,991.42
2018-07-16T01:20:56.843Z,991.43
2018-07-16T01:21:57.021Z,991.42
2018-07-16T01:22:57.194Z,991.40
2018-07-16T01:23:57.369Z,991.38
2018-07-16T01:24:57.554Z,991.38
2018-07-16T01:25:57.729Z,991.40
2018-07-16T01:26:57.904Z,991.41
2018-07-16T01:27:58.084Z,991.40
2018-07-16T01:28:58.261Z,991.38
2018-07-16T01:29:58.441Z,991.37
2018-07-16T01:30:58.632Z,991.37
2018-07-16T01:31:58.794Z,991.34
2018-07-16T01:32:58.969Z,991.34
2018-07-16T01:33:59.146Z,991.31
2018-07-16T01:34:59.328Z,991.32
2018-07-16T01:35:59.502Z,991.31
2018-07-16T01:36:59.674Z,991.33
2018-07-16T01:37:59.849Z,991.33
2018-07-16T01:39:00.034Z,991.36
2018-07-16T01:40:00.208Z,991.34
2018-07-16T01:41:00.381Z,991.32
2018-07-16T01:42:00.560Z,991.32
2018-07-16T01:43:00.743Z,991.33
2018-07-16T01:44:00.928Z,991.28
2018-07-16T01:45:01.111Z,991.33
2018-07-16T01:46:01.281Z,991.35
2018-07-16T01:47:01.458Z,991.35
2018-07-16T01:48:01.636Z,991.35
2018-07-16T01:49:01.812Z,991.37
2018-07-16T01:50:01.989Z,991.45
2018-07-16T01:51:02.171Z,991.40
2018-07-16T01:52:02.340Z,991.41
2018-07-16T01:53:02.515Z,991.43
2018-07-16T01:54:02.693Z,991.37
2018-07-16T01:55:02.867Z,991.40
2018-07-16T01:56:03.045Z,991.36
2018-07-16T01:57:03.218Z,991.33
2018-07-16T01:58:03.397Z,991.41
2018-07-16T01:59:03.570Z,991.43
2018-07-16T02:00:03.749Z,991.39
2018-07-16T02:01:03.922Z,991.36
2018-07-16T02:02:04.093Z,991.40
2018-07-16T02:03:04.279Z,991.40
2018-07-16T02:04:04.453Z,991.37
2018-07-16T02:05:04.628Z,991.35
2018-07-16T02:06:04.813Z,991.32
2018-07-16T02:07:04.983Z,991.36
2018-07-16T02:08:05.161Z,991.35
2018-07-16T02:09:05.334Z,991.33
2018-07-16T02:10:05.516Z,991.35
2018-07-16T02:11:05.684Z,991.34
2018-07-16T02:12:05.858Z,991.34
2018-07-16T02:13:06.079Z,991.35
2018-07-16T02:14:06.226Z,991.35
2018-07-16T02:15:06.409Z,991.32
2018-07-16T02:16:06.590Z,991.34
2018-07-16T02:17:06.765Z,991.31
2018-07-16T02:18:06.948Z,991.34
2018-07-16T02:19:07.128Z,991.34
2018-07-16T02:20:07.305Z,991.31
2018-07-16T02:21:07.484Z,991.32
2018-07-16T02:22:07.653Z,991.32
2018-07-16T02:23:07.842Z,991.31
2018-07-16T02:24:08.025Z,991.33
2018-07-16T02:25:08.197Z,991.34
2018-07-16T02:26:12.696Z,991.33
2018-07-16T02:27:09.387Z,991.31
2018-07-16T02:28:08.756Z,991.35
2018-07-16T02:29:09.173Z,991.32
2018-07-16T02:30:09.253Z,991.31
2018-07-16T02:31:09.483Z,991.31
2018-07-16T02:32:09.470Z,991.28
2018-07-16T02:33:09.823Z,991.30
2018-07-16T02:34:09.643Z,991.31
2018-07-16T02:35:09.818Z,991.32
2018-07-16T02:36:09.992Z,991.35
2018-07-16T02:37:10.167Z,991.32
2018-07-16T02:38:10.342Z,991.34
2018-07-16T02:39:10.515Z,991.38
2018-07-16T02:40:10.690Z,991.39
2018-07-16T02:41:10.867Z,991.37
2018-07-16T02:42:11.045Z,991.39
2018-07-16T02:43:11.224Z,991.36
2018-07-16T02:44:11.399Z,991.39
2018-07-16T02:45:11.584Z,991.39
2018-07-16T02:46:11.773Z,991.38
2018-07-16T02:47:11.941Z,991.42
2018-07-16T02:48:12.120Z,991.38
2018-07-16T02:49:12.299Z,991.45
2018-07-16T02:50:12.472Z,991.47
2018-07-16T02:51:12.647Z,991.46
2018-07-16T02:52:12.826Z,991.45
2018-07-16T02:53:13.001Z,991.48
2018-07-16T02:54:13.176Z,991.48
2018-07-16T02:55:13.357Z,991.45
2018-07-16T02:56:13.544Z,991.45
2018-07-16T02:57:13.718Z,991.42
2018-07-16T02:58:13.892Z,991.43
2018-07-16T02:59:14.067Z,991.41
2018-07-16T03:00:14.238Z,991.41
2018-07-16T03:01:14.415Z,991.39
2018-07-16T03:02:14.594Z,991.39
2018-07-16T03:03:14.777Z,991.40
2018-07-16T03:04:14.953Z,991.40
2018-07-16T03:05:15.131Z,991.44
2018-07-16T03:06:15.304Z,991.43
2018-07-16T03:07:15.484Z,991.42
2018-07-16T03:08:15.667Z,991.44
2018-07-16T03:09:15.843Z,991.42
2018-07-16T03:10:16.016Z,991.44
2018-07-16T03:11:16.193Z,991.39
2018-07-16T03:12:16.376Z,991.40
2018-07-16T03:13:16.546Z,991.40
2018-07-16T03:14:16.716Z,991.40
2018-07-16T03:15:16.897Z,991.39
2018-07-16T03:16:17.067Z,991.37
2018-07-16T03:17:17.242Z,991.38
2018-07-16T03:18:17.426Z,991.37
2018-07-16T03:19:17.608Z,991.37
2018-07-16T03:20:21.738Z,991.38
2018-07-16T03:21:23.044Z,991.36
2018-07-16T03:22:23.521Z,991.38
2018-07-16T03:23:19.732Z,991.35
2018-07-16T03:24:21.738Z,991.36
2018-07-16T03:25:21.422Z,991.34
2018-07-16T03:26:22.844Z,991.33
2018-07-16T03:27:22.004Z,991.36
2018-07-16T03:28:19.199Z,991.34
2018-07-16T03:29:21.910Z,991.34
2018-07-16T03:30:22.218Z,991.39
2018-07-16T03:31:20.998Z,991.42
2018-07-16T03:32:20.413Z,991.44
2018-07-16T03:33:22.813Z,991.41
2018-07-16T03:34:20.631Z,991.38
2018-07-16T03:35:21.602Z,991.38
2018-07-16T03:36:20.653Z,991.36
2018-07-16T03:37:20.829Z,991.37
2018-07-16T03:38:21.016Z,991.36
2018-07-16T03:39:21.193Z,991.35
2018-07-16T03:40:21.369Z,991.33
2018-07-16T03:41:21.591Z,991.36
2018-07-16T03:42:21.715Z,991.36
2018-07-16T03:43:21.896Z,991.39
2018-07-16T03:44:22.071Z,991.39
2018-07-16T03:45:22.246Z,991.41
2018-07-16T03:46:22.425Z,991.40
2018-07-16T03:47:22.599Z,991.40
2018-07-16T03:48:22.780Z,991.41
2018-07-16T03:49:22.956Z,991.40
2018-07-16T03:50:23.138Z,991.33
2018-07-16T03:51:23.311Z,991.37
2018-07-16T03:52:23.493Z,991.35
2018-07-16T03:53:23.670Z,991.34
2018-07-16T03:54:23.894Z,991.36
2018-07-16T03:55:24.026Z,991.39
2018-07-16T03:56:24.199Z,991.41
2018-07-16T03:57:24.373Z,991.39
2018-07-16T03:58:24.552Z,991.47
2018-07-16T03:59:24.729Z,991.40
2018-07-16T04:00:24.906Z,991.43
2018-07-16T04:01:25.082Z,991.46
2018-07-16T04:02:25.255Z,991.43
2018-07-16T04:03:25.434Z,991.41
2018-07-16T04:04:25.615Z,991.42
2018-07-16T04:05:25.790Z,991.40
2018-07-16T04:06:25.970Z,991.36
2018-07-16T04:07:26.148Z,991.36
2018-07-16T04:08:26.324Z,991.37
2018-07-16T04:09:26.497Z,991.36
2018-07-16T04:10:26.671Z,991.35
2018-07-16T04:11:26.843Z,991.37
2018-07-16T04:12:27.014Z,991.39
2018-07-16T04:13:27.191Z,991.39
2018-07-16T04:14:27.363Z,991.37
2018-07-16T04:15:27.534Z,991.37
2018-07-16T04:16:27.716Z,991.34
2018-07-16T04:17:27.899Z,991.37
2018-07-16T04:18:28.070Z,991.34
2018-07-16T04:19:28.253Z,991.33
2018-07-16T04:20:28.426Z,991.35
2018-07-16T04:21:28.603Z,991.34
2018-07-16T04:22:28.790Z,991.35
2018-07-16T04:23:28.959Z,991.31
2018-07-16T04:24:29.141Z,991.33
2018-07-16T04:25:29.316Z,991.25
2018-07-16T04:26:29.494Z,991.25
2018-07-16T04:27:29.660Z,991.23
2018-07-16T04:28:29.843Z,991.29
2018-07-16T04:29:30.024Z,991.27
2018-07-16T04:30:30.222Z,991.28
2018-07-16T04:31:30.459Z,991.29
2018-07-16T04:32:32.325Z,991.29
2018-07-16T04:33:32.734Z,991.28
2018-07-16T04:34:32.994Z,991.25
2018-07-16T04:35:32.540Z,991.26
2018-07-16T04:36:32.970Z,991.24
2018-07-16T04:37:32.728Z,991.25
2018-07-16T04:38:31.657Z,991.22
2018-07-16T04:39:31.833Z,991.27
2018-07-16T04:40:32.015Z,991.24
2018-07-16T04:41:32.224Z,991.27
2018-07-16T04:42:32.673Z,991.28
2018-07-16T04:43:32.606Z,991.31
2018-07-16T04:44:32.789Z,991.30
2018-07-16T04:45:33.312Z,991.29
2018-07-16T04:46:33.584Z,991.30
2018-07-16T04:47:33.638Z,991.29
2018-07-16T04:48:33.916Z,991.28
2018-07-16T04:49:34.009Z,991.32
2018-07-16T04:50:34.317Z,991.29
2018-07-16T04:51:34.431Z,991.29
2018-07-16T04:52:34.649Z,991.31
2018-07-16T04:53:34.846Z,991.29
2018-07-16T04:54:34.922Z,991.37
2018-07-16T04:55:35.071Z,991.32
2018-07-16T04:56:35.132Z,991.36
2018-07-16T04:57:35.406Z,991.38
2018-07-16T04:58:35.436Z,991.38
2018-07-16T04:59:35.498Z,991.39
2018-07-16T05:00:35.810Z,991.38
2018-07-16T05:01:35.993Z,991.40
2018-07-16T05:02:36.039Z,991.41
2018-07-16T05:03:36.828Z,991.41
2018-07-16T05:04:36.634Z,991.44
2018-07-16T05:05:36.935Z,991.44
2018-07-16T05:06:36.898Z,991.43
2018-07-16T05:07:37.136Z,991.41
2018-07-16T05:08:37.155Z,991.43
2018-07-16T05:09:37.275Z,991.39
2018-07-16T05:10:37.412Z,991.44
2018-07-16T05:11:37.753Z,991.46
2018-07-16T05:12:37.859Z,991.47
2018-07-16T05:13:37.610Z,991.50
2018-07-16T05:14:37.839Z,991.43
2018-07-16T05:15:38.168Z,991.45
2018-07-16T05:16:39.202Z,991.42
2018-07-16T05:17:38.668Z,991.40
2018-07-16T05:18:38.766Z,991.41
2018-07-16T05:19:38.543Z,991.39
2018-07-16T05:20:38.721Z,991.45
2018-07-16T05:21:38.898Z,991.43
2018-07-16T05:22:39.074Z,991.42
2018-07-16T05:23:39.253Z,991.43
2018-07-16T05:24:39.426Z,991.42
2018-07-16T05:25:39.609Z,991.39
2018-07-16T05:26:39.786Z,991.37
2018-07-16T05:27:39.971Z,991.33
2018-07-16T05:28:40.150Z,991.36
2018-07-16T05:29:40.327Z,991.32
2018-07-16T05:30:40.515Z,991.35
2018-07-16T05:31:40.699Z,991.36
2018-07-16T05:32:41.053Z,991.36
2018-07-16T05:33:41.047Z,991.39
2018-07-16T05:34:41.223Z,991.38
2018-07-16T05:35:41.399Z,991.38
2018-07-16T05:36:42.929Z,991.38
2018-07-16T05:37:41.762Z,991.39
2018-07-16T05:38:41.945Z,991.42
2018-07-16T05:39:42.114Z,991.41
2018-07-16T05:40:42.285Z,991.41
2018-07-16T05:41:42.458Z,991.45
2018-07-16T05:42:42.633Z,991.43
2018-07-16T05:43:42.806Z,991.46
2018-07-16T05:44:42.989Z,991.43
2018-07-16T05:45:43.173Z,991.45
2018-07-16T05:46:43.350Z,991.43
2018-07-16T05:47:43.537Z,991.42
2018-07-16T05:48:43.708Z,991.40
2018-07-16T05:49:43.881Z,991.42
2018-07-16T05:50:44.051Z,991.38
2018-07-16T05:51:44.231Z,991.35
2018-07-16T05:52:44.407Z,991.37
2018-07-16T05:53:44.578Z,991.38
2018-07-16T05:54:44.761Z,991.37
2018-07-16T05:55:44.935Z,991.39
2018-07-16T05:56:45.114Z,991.38
2018-07-16T05:57:45.297Z,991.40
2018-07-16T05:58:45.472Z,991.37
2018-07-16T05:59:45.649Z,991.36
2018-07-16T06:00:45.830Z,991.42
2018-07-16T06:01:46.009Z,991.43
2018-07-16T06:02:46.183Z,991.48
2018-07-16T06:03:46.366Z,991.50
2018-07-16T06:04:46.559Z,991.43
2018-07-16T06:05:46.838Z,991.56
2018-07-16T06:06:46.909Z,991.62
2018-07-16T06:07:47.142Z,991.89
2018-07-16T06:08:47.914Z,992.40
2018-07-16T06:09:47.360Z,992.84
2018-07-16T06:10:47.744Z,992.62
2018-07-16T06:11:48.208Z,992.10
2018-07-16T06:12:48.205Z,991.96
2018-07-16T06:13:47.979Z,991.78
2018-07-16T06:14:48.041Z,991.67
2018-07-16T06:15:51.470Z,991.73
2018-07-16T06:16:48.646Z,991.76
2018-07-16T06:17:48.726Z,991.82
2018-07-16T06:18:48.796Z,992.05
2018-07-16T06:19:48.973Z,993.00
2018-07-16T06:20:49.148Z,994.21
2018-07-16T06:21:49.328Z,994.58
2018-07-16T06:22:49.500Z,994.43
2018-07-16T06:23:49.726Z,994.17
2018-07-16T06:24:49.861Z,994.30
2018-07-16T06:25:50.046Z,994.38
2018-07-16T06:26:50.279Z,994.52
2018-07-16T06:27:50.334Z,994.76
2018-07-16T06:28:50.516Z,994.66
2018-07-16T06:29:50.693Z,994.63
2018-07-16T06:30:50.924Z,994.60
2018-07-16T06:31:51.108Z,994.54
2018-07-16T06:32:51.726Z,994.52
2018-07-16T06:33:51.417Z,994.45
2018-07-16T06:34:51.748Z,994.39
2018-07-16T06:35:51.798Z,994.22
2018-07-16T06:36:52.017Z,994.15
2018-07-16T06:37:52.231Z,994.12
2018-07-16T06:38:52.328Z,994.09
2018-07-16T06:39:52.544Z,994.03
2018-07-16T06:40:55.600Z,993.98
2018-07-16T06:41:57.554Z,993.89
2018-07-16T06:42:53.015Z,993.76
2018-07-16T06:43:53.439Z,993.76
2018-07-16T06:44:53.400Z,993.61
2018-07-16T06:45:53.587Z,993.53
2018-07-16T06:46:53.848Z,993.58
2018-07-16T06:47:54.281Z,993.62
2018-07-16T06:48:54.311Z,993.45
2018-07-16T06:49:54.564Z,993.06
2018-07-16T06:50:54.878Z,993.21
2018-07-16T06:51:54.745Z,992.77
2018-07-16T06:52:54.936Z,992.84
2018-07-16T06:53:55.108Z,993.00
2018-07-16T06:54:55.389Z,992.99
2018-07-16T06:55:55.501Z,992.91
2018-07-16T06:56:55.612Z,992.92
2018-07-16T06:57:55.899Z,992.90
2018-07-16T06:58:56.016Z,992.44
2018-07-16T06:59:56.139Z,992.52
2018-07-16T07:00:56.535Z,992.69
2018-07-16T07:01:56.738Z,992.65
2018-07-16T07:02:57.111Z,992.66
2018-07-16T07:03:58.090Z,992.56
2018-07-16T07:04:58.195Z,992.46
2018-07-16T07:06:00.827Z,992.46
2018-07-16T07:06:58.658Z,992.53
2018-07-16T07:08:01.407Z,992.52
2018-07-16T07:09:01.083Z,992.42
2018-07-16T07:09:58.183Z,992.53
2018-07-16T07:10:58.458Z,992.52
2018-07-16T07:11:59.990Z,992.60
2018-07-16T07:13:00.385Z,992.57
2018-07-16T07:14:00.261Z,992.51
2018-07-16T07:15:00.013Z,992.54
2018-07-16T07:16:00.206Z,992.47
2018-07-16T07:17:01.795Z,992.49
2018-07-16T07:17:59.853Z,992.41
2018-07-16T07:18:59.607Z,992.46
2018-07-16T07:20:00.191Z,992.50
2018-07-16T07:21:00.284Z,992.49
2018-07-16T07:22:00.350Z,992.50
2018-07-16T07:23:00.355Z,992.45
2018-07-16T07:24:00.389Z,992.51
2018-07-16T07:25:00.463Z,992.51
2018-07-16T07:26:00.659Z,992.60
2018-07-16T07:27:00.840Z,992.55
2018-07-16T07:28:01.023Z,992.54
2018-07-16T07:29:01.230Z,992.54
2018-07-16T07:30:01.423Z,992.56
2018-07-16T07:31:01.611Z,992.54
2018-07-16T07:32:01.798Z,992.55
2018-07-16T07:33:01.990Z,992.57
2018-07-16T07:34:02.182Z,992.57
2018-07-16T07:35:02.466Z,992.59
2018-07-16T07:36:02.715Z,992.51
2018-07-16T07:37:02.769Z,992.55
2018-07-16T07:38:02.954Z,992.51
2018-07-16T07:39:03.413Z,992.48
2018-07-16T07:40:03.560Z,992.50
2018-07-16T07:41:03.647Z,992.48
2018-07-16T07:42:03.704Z,992.46
2018-07-16T07:43:04.084Z,992.44
2018-07-16T07:44:04.142Z,992.46
2018-07-16T07:45:04.464Z,992.45
2018-07-16T07:46:04.621Z,992.48
2018-07-16T07:47:04.810Z,992.45
2018-07-16T07:48:05.004Z,992.44
2018-07-16T07:49:05.304Z,992.46
2018-07-16T07:50:05.603Z,992.47
2018-07-16T07:51:05.539Z,992.43
2018-07-16T07:52:05.656Z,992.43
2018-07-16T07:53:05.844Z,992.39
2018-07-16T07:54:06.143Z,992.40
2018-07-16T07:55:06.727Z,992.38
2018-07-16T07:56:06.644Z,992.38
2018-07-16T07:57:06.634Z,992.39
2018-07-16T07:58:06.834Z,992.38
2018-07-16T07:59:07.012Z,992.35
2018-07-16T08:00:07.349Z,992.38
2018-07-16T08:01:07.372Z,992.36
2018-07-16T08:02:07.595Z,992.31
2018-07-16T08:03:07.425Z,992.35
2018-07-16T08:04:07.888Z,992.27
2018-07-16T08:05:07.783Z,992.27
2018-07-16T08:06:07.975Z,992.27
2018-07-16T08:07:08.473Z,992.25
2018-07-16T08:08:08.735Z,992.21
2018-07-16T08:09:09.315Z,992.23
2018-07-16T08:10:09.145Z,992.22
2018-07-16T08:11:09.174Z,992.24
2018-07-16T08:12:09.371Z,992.23
2018-07-16T08:13:09.487Z,992.20
2018-07-16T08:14:09.876Z,992.18
2018-07-16T08:15:09.916Z,992.20
2018-07-16T08:16:09.701Z,992.16
2018-07-16T08:17:10.296Z,992.09
2018-07-16T08:18:10.654Z,992.12
2018-07-16T08:19:12.428Z,992.11
2018-07-16T08:20:11.659Z,992.15
2018-07-16T08:21:11.830Z,992.11
2018-07-16T08:22:12.525Z,992.11
2018-07-16T08:23:11.382Z,992.15
2018-07-16T08:24:12.477Z,992.06
2018-07-16T08:25:12.499Z,992.06
2018-07-16T08:26:13.891Z,992.12
2018-07-16T08:27:13.735Z,992.09
2018-07-16T08:28:13.554Z,992.16
2018-07-16T08:29:12.177Z,992.14
2018-07-16T08:30:12.391Z,992.21
2018-07-16T08:31:12.723Z,992.23
2018-07-16T08:32:12.775Z,992.19
2018-07-16T08:33:12.963Z,992.18
2018-07-16T08:34:13.183Z,992.16
2018-07-16T08:35:13.387Z,992.19
2018-07-16T08:36:13.563Z,992.18
2018-07-16T08:37:14.013Z,992.17
2018-07-16T08:38:13.976Z,992.17
2018-07-16T08:39:14.300Z,992.20
2018-07-16T08:40:14.407Z,992.19
2018-07-16T08:41:14.613Z,992.16
2018-07-16T08:42:14.817Z,992.16
2018-07-16T08:43:15.014Z,992.14
2018-07-16T08:44:15.231Z,992.12
2018-07-16T08:45:15.459Z,992.14
2018-07-16T08:46:17.980Z,992.14
2018-07-16T08:47:17.172Z,992.14
2018-07-16T08:48:18.440Z,992.10
2018-07-16T08:49:16.966Z,992.00
2018-07-16T08:50:17.300Z,991.86
2018-07-16T08:51:17.964Z,991.78
2018-07-16T08:52:17.563Z,991.76
2018-07-16T08:53:18.272Z,991.77
2018-07-16T08:54:18.705Z,991.68
2018-07-16T08:55:19.251Z,991.68
2018-07-16T08:56:17.631Z,991.68
2018-07-16T08:57:17.675Z,991.70
2018-07-16T08:58:17.894Z,991.66
2018-07-16T08:59:18.160Z,991.63
2018-07-16T09:00:18.383Z,991.61
2018-07-16T09:01:18.442Z,991.67
2018-07-16T09:02:18.656Z,991.65
2018-07-16T09:03:18.854Z,991.64
2018-07-16T09:04:19.054Z,991.61
2018-07-16T09:05:19.250Z,991.58
2018-07-16T09:06:19.435Z,991.66
2018-07-16T09:07:19.645Z,991.66
2018-07-16T09:08:19.835Z,991.65
2018-07-16T09:09:20.038Z,991.66
2018-07-16T09:10:20.268Z,991.65
2018-07-16T09:11:20.492Z,991.63
2018-07-16T09:12:20.699Z,991.67
2018-07-16T09:13:20.844Z,991.63
2018-07-16T09:14:20.998Z,991.64
2018-07-16T09:15:21.245Z,991.69
2018-07-16T09:16:21.339Z,991.70
2018-07-16T09:17:21.560Z,991.70
2018-07-16T09:18:21.790Z,991.69
2018-07-16T09:19:21.984Z,991.70
2018-07-16T09:20:22.217Z,991.67
2018-07-16T09:21:22.419Z,991.69
2018-07-16T09:22:22.632Z,991.67
2018-07-16T09:23:22.853Z,991.67
2018-07-16T09:24:23.026Z,991.64
2018-07-16T09:25:23.335Z,991.63
2018-07-16T09:26:23.378Z,991.61
2018-07-16T09:27:23.618Z,991.67
2018-07-16T09:28:23.771Z,991.67
2018-07-16T09:29:23.960Z,991.64
2018-07-16T09:30:24.142Z,991.61
2018-07-16T09:31:24.336Z,991.59
2018-07-16T09:32:24.547Z,991.58
2018-07-16T09:33:24.734Z,991.53
2018-07-16T09:34:24.948Z,991.54
2018-07-16T09:35:25.130Z,991.59
2018-07-16T09:36:25.328Z,991.53
2018-07-16T09:37:25.522Z,991.52
2018-07-16T09:38:25.719Z,991.57
2018-07-16T09:39:25.910Z,991.54
2018-07-16T09:40:27.663Z,991.52
2018-07-16T09:41:27.899Z,991.47
2018-07-16T09:42:26.507Z,991.50
2018-07-16T09:43:26.684Z,991.49
2018-07-16T09:44:26.970Z,991.49
2018-07-16T09:45:27.112Z,991.47
2018-07-16T09:46:27.331Z,991.43
2018-07-16T09:47:27.532Z,991.44
2018-07-16T09:48:27.733Z,991.40
2018-07-16T09:49:27.944Z,991.37
2018-07-16T09:50:28.187Z,991.34
2018-07-16T09:51:28.371Z,991.33
2018-07-16T09:52:28.589Z,991.31
2018-07-16T09:53:28.765Z,991.29
2018-07-16T09:54:28.966Z,991.29
2018-07-16T09:55:29.157Z,991.33
2018-07-16T09:56:29.377Z,991.30
2018-07-16T09:57:29.553Z,991.25
2018-07-16T09:58:29.741Z,991.27
2018-07-16T09:59:29.938Z,991.21
2018-07-16T10:00:30.123Z,991.21
2018-07-16T10:01:30.312Z,991.17
2018-07-16T10:02:30.514Z,991.14
2018-07-16T10:03:30.701Z,991.14
2018-07-16T10:04:30.917Z,991.11
2018-07-16T10:05:31.115Z,991.11
2018-07-16T10:06:31.301Z,991.07
2018-07-16T10:07:31.484Z,991.05
2018-07-16T10:08:31.767Z,991.11
2018-07-16T10:09:31.886Z,991.06
2018-07-16T10:10:32.160Z,991.03
2018-07-16T10:11:32.250Z,991.01
2018-07-16T10:12:32.538Z,990.94
2018-07-16T10:13:32.656Z,990.98
2018-07-16T10:14:32.853Z,990.97
2018-07-16T10:15:33.323Z,990.94
2018-07-16T10:16:33.362Z,990.93
2018-07-16T10:17:33.315Z,990.91
2018-07-16T10:18:33.514Z,990.84
2018-07-16T10:19:33.692Z,990.92
2018-07-16T10:20:33.927Z,990.87
2018-07-16T10:21:34.065Z,990.83
2018-07-16T10:22:34.251Z,990.87
2018-07-16T10:23:34.440Z,990.79
2018-07-16T10:24:34.623Z,990.78
2018-07-16T10:25:34.811Z,990.69
2018-07-16T10:26:34.997Z,990.67
2018-07-16T10:27:35.199Z,990.65
2018-07-16T10:28:35.388Z,990.59
2018-07-16T10:29:35.579Z,990.55
2018-07-16T10:30:35.764Z,990.51
2018-07-16T10:31:35.965Z,990.42
2018-07-16T10:32:36.180Z,990.45
2018-07-16T10:33:36.415Z,990.41
2018-07-16T10:34:36.582Z,990.38
2018-07-16T10:35:36.765Z,990.41
2018-07-16T10:36:36.948Z,990.33
2018-07-16T10:37:37.137Z,990.36
2018-07-16T10:38:37.320Z,990.30
2018-07-16T10:39:37.542Z,990.28
2018-07-16T10:40:37.705Z,990.24
2018-07-16T10:41:37.884Z,990.24
2018-07-16T10:42:38.070Z,990.23
2018-07-16T10:43:38.263Z,990.21
2018-07-16T10:44:38.447Z,990.20
2018-07-16T10:45:38.637Z,990.16
2018-07-16T10:46:38.827Z,990.14
2018-07-16T10:47:39.015Z,990.16
2018-07-16T10:48:39.203Z,990.16
2018-07-16T10:49:39.390Z,990.13
2018-07-16T10:50:39.578Z,990.14
2018-07-16T10:51:39.771Z,990.10
2018-07-16T10:52:39.963Z,990.12
2018-07-16T10:53:40.157Z,990.13
2018-07-16T10:54:40.351Z,990.12
2018-07-16T10:55:40.677Z,990.09
2018-07-16T10:56:40.753Z,990.10
2018-07-16T10:57:40.937Z,990.08
2018-07-16T10:58:41.121Z,990.07
2018-07-16T10:59:41.323Z,990.05
2018-07-16T11:00:41.501Z,990.01
2018-07-16T11:01:41.679Z,990.02
2018-07-16T11:02:41.867Z,989.96
2018-07-16T11:03:42.051Z,989.99
2018-07-16T11:04:42.242Z,989.97
2018-07-16T11:05:42.433Z,989.96
2018-07-16T11:06:42.624Z,989.95
2018-07-16T11:07:42.914Z,989.97
2018-07-16T11:08:43.052Z,989.96
2018-07-16T11:09:43.232Z,989.94
2018-07-16T11:10:43.422Z,989.90
2018-07-16T11:11:43.595Z,989.90
2018-07-16T11:12:43.787Z,989.92
2018-07-16T11:13:43.976Z,989.92
2018-07-16T11:14:44.204Z,989.92
2018-07-16T11:15:44.397Z,989.91
2018-07-16T11:16:44.612Z,989.91
2018-07-16T11:17:44.982Z,989.94
2018-07-16T11:18:45.232Z,989.93
2018-07-16T11:19:45.141Z,989.93
2018-07-16T11:20:45.514Z,989.92
2018-07-16T11:21:45.519Z,989.91
2018-07-16T11:22:45.758Z,989.88
2018-07-16T11:23:45.942Z,989.85
2018-07-16T11:24:46.163Z,989.80
2018-07-16T11:25:46.586Z,989.80
2018-07-16T11:26:46.748Z,989.78
2018-07-16T11:27:46.917Z,989.78
2018-07-16T11:28:47.010Z,989.79
2018-07-16T11:29:47.039Z,989.78
2018-07-16T11:30:47.399Z,989.74
2018-07-16T11:31:47.374Z,989.78
2018-07-16T11:32:47.564Z,989.75
2018-07-16T11:33:47.749Z,989.75
2018-07-16T11:34:47.932Z,989.75
2018-07-16T11:35:48.189Z,989.72
2018-07-16T11:36:48.299Z,989.74
2018-07-16T11:37:48.486Z,989.74
2018-07-16T11:38:48.670Z,989.74
2018-07-16T11:39:48.854Z,989.69
2018-07-16T11:40:49.039Z,989.73
2018-07-16T11:41:49.227Z,989.75
2018-07-16T11:42:49.411Z,989.70
2018-07-16T11:43:49.592Z,989.65
2018-07-16T11:44:49.791Z,989.68
2018-07-16T11:45:49.983Z,989.68
2018-07-16T11:46:50.179Z,989.64
2018-07-16T11:47:50.369Z,989.61
2018-07-16T11:48:50.552Z,989.59
2018-07-16T11:49:50.741Z,989.58
2018-07-16T11:50:50.930Z,989.55
2018-07-16T11:51:51.113Z,989.53
2018-07-16T11:52:51.296Z,989.54
2018-07-16T11:53:51.513Z,989.50
2018-07-16T11:54:51.698Z,989.51
2018-07-16T11:55:51.876Z,989.49
2018-07-16T11:56:52.066Z,989.51
2018-07-16T11:57:52.300Z,989.52
2018-07-16T11:58:52.532Z,989.51
2018-07-16T11:59:52.651Z,989.47
2018-07-16T12:00:53.183Z,989.47
2018-07-16T12:01:53.352Z,989.46
2018-07-16T12:02:53.546Z,989.43
2018-07-16T12:03:53.692Z,989.41
2018-07-16T12:04:54.136Z,989.36
2018-07-16T12:05:54.839Z,989.35
2018-07-16T12:06:54.062Z,989.28
2018-07-16T12:07:54.536Z,989.31
2018-07-16T12:08:54.514Z,989.28
2018-07-16T12:09:54.566Z,989.27
2018-07-16T12:10:54.783Z,989.30
2018-07-16T12:11:54.839Z,989.24
2018-07-16T12:12:55.315Z,989.28
2018-07-16T12:13:55.483Z,989.28
2018-07-16T12:14:55.460Z,989.31
2018-07-16T12:15:56.030Z,989.28
2018-07-16T12:16:55.889Z,989.28
2018-07-16T12:17:56.033Z,989.26
2018-07-16T12:18:56.198Z,989.33
2018-07-16T12:19:56.358Z,989.30
2018-07-16T12:20:56.529Z,989.33
2018-07-16T12:21:56.617Z,989.30
2018-07-16T12:22:56.969Z,989.24
2018-07-16T12:23:57.094Z,989.22
2018-07-16T12:24:57.226Z,989.20
2018-07-16T12:25:57.809Z,989.20
2018-07-16T12:26:57.866Z,989.23
2018-07-16T12:27:57.549Z,989.23
2018-07-16T12:28:57.526Z,989.22
2018-07-16T12:29:58.125Z,989.33
2018-07-16T12:30:58.074Z,989.26